Aérodrome :
LOGIN :

S'inscrire | Disclaimer

   EN    FR    IT 

 










Légende :    VFR   VFR Marginal   IFR   IFR Intensif   IFR Très Intensif
Visi : 
Plafond : 
>= 8 km
>= 3000ft
5 à 8 km
1000 à 3000 ft
1500m à 5 km
500 à 1000 ft
800 à 1500m
200 à 500 ft
< 800m
< 200 ft
Symboles :   Orages  Brouillard  Fortes neiges  Fortes précipitations  Vent > 20 kt
SIGMETs :   Divers  Orages  Givrage  Turbulence  Onde Orograph.  Cendres Volcan.







- Altitude de l'aérodrome : 13 ft
- Code IATA : OST


EBOS - Oostend bruges Int.

DERNIER METAR :
  • 211050Z 35006KT 9999 FEW030TCU 17/12 Q1015 NOSIG

METARs EXPIRÉS :
  • 211020Z VRB02KT 9999 FEW030TCU 17/13 Q1015 NOSIG
  • 210950Z 04006KT 9999 -SHRA FEW030TCU 17/13 Q1015 TEMPO 4500 SHRA
  • 210920Z 04005KT 020V080 9999 FEW030 19/12 Q1015 NOSIG
  • 210850Z 06006KT 020V090 CAVOK 20/12 Q1016 NOSIG
  • 210820Z 07008KT 7000 NSC 18/12 Q1016 NOSIG

TAF TAF EBOS
Valide du 21 à 06h jusqu'au 22 à 12h UTC


210510Z 2106/2212 01005KT 6000 NSC
PROB40
TEMPO 2119/2122 VRB20G30KT 4000 SHRA TSRA
Pas de NOTAMs connus pour ce terrain.



MET'MAP, la Météo Aéronautique d'un coup d'oeil ! - Copyright ORBIFLY Décembre 2007 - Disclaimer

ORBIFLY MET'MAP TEAM :

Programmation & Développement : Alexandra Zaïnal
Conception & Développement : Baudouin d'Aumeries
Co-Programmation & Développement : Marc-Olivier Méhu
Soutien technique & logistique : Manuel Goepfert

Contact : metmap@orbifly.com




SOURCES & CREDITS :

   NOAA